»·PEaware :: N1128 KSLC-KLAS

N1128 :: KSLC-KLAS

FLIGHT INFORMATION

Flight Status: Arrived
Operator: Privately registered:
United States
More flights under this callsign
Pilot: Siddique N. (20419)
Aircraft: ECLIPSE 500
(EA50)
More flights by this aircraft type
Origin: KSLC Salt Lake City Intl
United States
Destination: KLAS McCarran Intl
United States
More flights between these airports :: More routes between these airports
Route: +FFU9 MLF EHK MPIRE SITEE4
File this flight plan on PilotEdge
Remarks:
Altitude:
(Current/Filed)
24,000ft
Speed:
(Current/Filed)
250kts
Departed: 09-Oct-20 10:26 AM
Arrived: 09-Oct-20 11:34 AM
Distance/Time
Traveled:
320nm/1:08
Distance/Time
To Go:
Arrived

Flight Plot

Page will automatically refresh every two minutes.

Flight plan parsing failed; only flown route is shown


Map Options




Map Legend


Flown Route
Filed Route
Departure Airport
Arrival Airport
Navaid (VOR, NDB)
Fix

Horizontal Profiles

Position Reports

Time Latitude Longitude Heading Altitude Ground
Speed
09-Oct-20 10:06 40.775671 -111.959392 357 4222ft 0kts
09-Oct-20 10:07 40.775671 -111.959392 357 4222ft 0kts
09-Oct-20 10:08 40.775671 -111.959392 357 4222ft 0kts
09-Oct-20 10:09 40.775671 -111.959392 357 4222ft 0kts
09-Oct-20 10:10 40.775671 -111.959392 357 4222ft 0kts
09-Oct-20 10:11 40.775671 -111.959392 357 4222ft 0kts
09-Oct-20 10:12 40.775671 -111.959392 357 4222ft 0kts
09-Oct-20 10:13 40.775671 -111.959392 357 4222ft 0kts
09-Oct-20 10:14 40.775671 -111.959392 357 4222ft 0kts
09-Oct-20 10:15 40.775671 -111.959392 357 4222ft 0kts
09-Oct-20 10:16 40.775671 -111.959392 357 4222ft 0kts
09-Oct-20 10:18 40.775671 -111.959392 357 4222ft 0kts
09-Oct-20 10:19 40.775671 -111.959392 357 4222ft 0kts
09-Oct-20 10:20 40.777551 -111.959993 0 4222ft 19kts
09-Oct-20 10:21 40.784738 -111.960051 358 4219ft 29kts
09-Oct-20 10:22 40.792332 -111.960051 358 4218ft 31kts
09-Oct-20 10:23 40.798679 -111.960290 310 4219ft 7kts
09-Oct-20 10:24 40.798863 -111.961191 268 4219ft 14kts
09-Oct-20 10:25 40.797671 -111.962059 180 4219ft 36kts
09-Oct-20 10:26 40.763446 -111.960011 171 4660ft 179kts
09-Oct-20 10:27 40.708089 -111.948547 171 6775ft 214kts
09-Oct-20 10:28 40.649984 -111.940361 180 9460ft 211kts
09-Oct-20 10:29 40.590547 -111.938915 183 11783ft 217kts
09-Oct-20 10:30 40.529757 -111.938541 184 13902ft 223kts
09-Oct-20 10:31 40.467311 -111.938606 184 15839ft 228kts
09-Oct-20 10:32 40.403283 -111.939533 184 17886ft 234kts
09-Oct-20 10:33 40.337308 -111.939392 181 19809ft 242kts
09-Oct-20 10:34 40.269506 -111.938859 188 21584ft 247kts
09-Oct-20 10:34 40.211818 -111.945194 188 22937ft 253kts
09-Oct-20 10:36 40.127222 -111.956990 190 23914ft 288kts
09-Oct-20 10:36 40.056471 -111.968836 190 23913ft 324kts
09-Oct-20 10:37 39.963496 -111.983671 189 23912ft 346kts
09-Oct-20 10:38 39.866590 -111.998325 189 23913ft 356kts
09-Oct-20 10:39 39.767199 -112.013318 189 23912ft 362kts
09-Oct-20 10:40 39.666842 -112.024819 187 23912ft 365kts
09-Oct-20 10:41 39.566120 -112.038467 189 23981ft 363kts
09-Oct-20 10:42 39.465495 -112.053217 189 23992ft 365kts
09-Oct-20 10:43 39.364861 -112.067824 189 23992ft 365kts
09-Oct-20 10:44 39.263707 -112.082355 189 23992ft 366kts
09-Oct-20 10:45 39.162899 -112.096945 190 23992ft 365kts
09-Oct-20 10:46 39.080815 -112.164307 224 23991ft 357kts
09-Oct-20 10:47 39.008438 -112.249847 224 23991ft 356kts
09-Oct-20 10:48 38.935973 -112.335427 224 23990ft 356kts
09-Oct-20 10:49 38.863923 -112.420453 224 23971ft 356kts
09-Oct-20 10:50 38.791030 -112.506425 224 23964ft 356kts
09-Oct-20 10:51 38.720067 -112.594046 224 23963ft 355kts
09-Oct-20 10:52 38.648348 -112.675658 222 23967ft 355kts
09-Oct-20 10:53 38.574554 -112.759232 222 23967ft 355kts
09-Oct-20 10:54 38.502942 -112.846096 225 23966ft 355kts
09-Oct-20 10:55 38.431803 -112.932656 224 23965ft 354kts
09-Oct-20 10:56 38.354640 -113.010493 202 23952ft 360kts
09-Oct-20 10:57 38.253734 -113.019036 186 23965ft 365kts
09-Oct-20 10:58 38.152754 -113.026870 187 23965ft 364kts
09-Oct-20 10:59 38.051981 -113.035249 187 23964ft 364kts
09-Oct-20 11:00 37.951413 -113.047151 189 24042ft 361kts
09-Oct-20 11:01 37.851386 -113.057891 188 24047ft 362kts
09-Oct-20 11:02 37.765008 -113.106191 231 24046ft 350kts
09-Oct-20 11:03 37.710735 -113.207925 237 24046ft 349kts
09-Oct-20 11:04 37.657862 -113.308019 237 24043ft 322kts
09-Oct-20 11:05 37.611049 -113.396321 237 24043ft 287kts
09-Oct-20 11:06 37.564554 -113.480655 236 23071ft 324kts
09-Oct-20 11:07 37.485900 -113.546311 204 20703ft 351kts
09-Oct-20 11:08 37.397966 -113.593775 207 17580ft 338kts
09-Oct-20 11:09 37.315329 -113.641955 207 15832ft 325kts
09-Oct-20 11:10 37.232890 -113.690959 208 15831ft 331kts
09-Oct-20 11:11 37.150181 -113.741333 208 15831ft 330kts
09-Oct-20 11:12 37.067143 -113.791802 208 15830ft 330kts
09-Oct-20 11:13 36.983533 -113.838852 206 15830ft 330kts
09-Oct-20 11:14 36.900476 -113.886713 207 15830ft 329kts
09-Oct-20 11:15 36.817302 -113.934546 207 15831ft 329kts
09-Oct-20 11:16 36.734982 -113.983509 210 15831ft 328kts
09-Oct-20 11:17 36.652985 -114.033503 208 15831ft 329kts
09-Oct-20 11:18 36.572894 -114.087790 226 15817ft 325kts
09-Oct-20 11:19 36.524082 -114.182223 239 15368ft 333kts
09-Oct-20 11:20 36.478722 -114.274278 239 13905ft 319kts
09-Oct-20 11:21 36.431887 -114.366972 238 11945ft 314kts
09-Oct-20 11:22 36.386786 -114.455449 237 11339ft 311kts
09-Oct-20 11:23 36.339883 -114.545427 237 9765ft 302kts
09-Oct-20 11:24 36.294423 -114.633221 237 9748ft 307kts
09-Oct-20 11:25 36.249398 -114.720532 237 7788ft 286kts
09-Oct-20 11:26 36.207280 -114.802670 237 6980ft 297kts
09-Oct-20 11:27 36.166128 -114.883110 237 5749ft 252kts
09-Oct-20 11:28 36.134609 -114.949776 263 5742ft 204kts
09-Oct-20 11:29 36.140634 -115.017095 278 4964ft 203kts
09-Oct-20 11:30 36.148537 -115.082149 265 3399ft 166kts
09-Oct-20 11:31 36.130407 -115.134556 228 2653ft 177kts
09-Oct-20 11:32 36.091223 -115.161264 207 2116ft 114kts
09-Oct-20 11:33 36.084052 -115.166152 227 2148ft 0kts
09-Oct-20 11:34 36.082884 -115.167799 233 2157ft 28kts

Navigation Log

Ident Type
Flight plan parsing failed, navigation log unavailable